Benguela Stream — PENR — position and weather

sailwx.info

Track history (hours):
 
Tides and Currents Weather Stations Pressure Air Temp Water Temp Dewpoint Dewpoint Depression Visibility Wind Speed Wind Dir Waves Ship Positions

Benguela Stream

Last reported at 2017-Dec-17 20:18 UTC. Time now 2017-Dec-18 01:35 UTC.
Position N 15°08' W 061°35'.

Length 150 m; beam 13 m.

Type: Cargo ship. MMSI: 244455000.

Date/timePositionNaut miles runAvg speedWind from/ knotsBaromVisibWave heightAir tempDewpointWater temp
2017-Dec-17 20:18N 15°08' W 061°35'515.6
2017-Dec-17 19:59N 15°13' W 061°35'815.3
2017-Dec-17 19:29N 15°20' W 061°34'815.7
2017-Dec-17 18:57N 15°29' W 061°34'915.8
2017-Dec-17 18:22N 15°38' W 061°33'915.2
2017-Dec-17 17:48N 15°46' W 061°32'915.7
2017-Dec-17 17:13N 15°56' W 061°31'415.6
2017-Dec-17 16:59N 15°59' W 061°30'715.3
2017-Dec-17 16:30N 16°07' W 061°31'5 9.5
2017-Dec-17 16:00N 16°11' W 061°33'3 5.4
2017-Dec-17 15:27N 16°14' W 061°33'0 0.0
2017-Dec-17 14:57N 16°14' W 061°33'0 0.0
2017-Dec-17 14:21N 16°14' W 061°33'0 0.0
2017-Dec-17 14:00N 16°14' W 061°33'0 0.0
2017-Dec-17 13:30N 16°14' W 061°33'0 0.0
2017-Dec-17 13:00N 16°14' W 061°33'0 0.0
2017-Dec-17 12:30N 16°14' W 061°33'0 0.0
2017-Dec-17 12:00N 16°14' W 061°33'0 0.0
2017-Dec-17 11:30N 16°14' W 061°33'0 0.0
2017-Dec-17 11:00N 16°14' W 061°33'0 0.0
2017-Dec-17 10:30N 16°14' W 061°33'1 2.6
2017-Dec-17 10:00N 16°13' W 061°32'4 8.3
2017-Dec-17 09:30N 16°09' W 061°31'1 2.1
2017-Dec-17 09:01N 16°08' W 061°30'1 2.2
2017-Dec-17 08:30N 16°07' W 061°30'510.6
2017-Dec-17 08:00N 16°01' W 061°31'711.9
2017-Dec-17 07:24N 15°54' W 061°31'611.6
2017-Dec-17 06:53N 15°48' W 061°32'411.8
2017-Dec-17 06:30N 15°44' W 061°33'712.1
2017-Dec-17 05:56N 15°37' W 061°33'56 7.9
2017-Dec-16 22:50N 14°42' W 061°21'511.0
2017-Dec-16 22:24N 14°39' W 061°17'512.2
2017-Dec-16 22:00N 14°37' W 061°13'812.1
2017-Dec-16 21:21N 14°35' W 061°05'2 4.4
2017-Dec-16 21:01N 14°35' W 061°03'0 0.0
2017-Dec-16 20:28N 14°35' W 061°03'0 0.0
2017-Dec-16 19:58N 14°35' W 061°03'0 0.0
2017-Dec-16 19:28N 14°35' W 061°03'0 0.0
2017-Dec-16 18:58N 14°35' W 061°03'0 0.0
2017-Dec-16 18:28N 14°35' W 061°03'0 0.0
2017-Dec-16 17:58N 14°35' W 061°03'0 0.0
2017-Dec-16 17:28N 14°35' W 061°03'0 0.0
2017-Dec-16 16:58N 14°35' W 061°03'0 0.0
2017-Dec-16 16:28N 14°35' W 061°03'0 0.0
2017-Dec-16 15:58N 14°35' W 061°03'0 0.0
2017-Dec-16 15:25N 14°35' W 061°03'0 0.0
2017-Dec-16 14:58N 14°35' W 061°03'0 0.0
2017-Dec-16 14:28N 14°35' W 061°03'0 0.0
2017-Dec-16 13:55N 14°35' W 061°03'0 0.0
2017-Dec-16 13:28N 14°35' W 061°03'0 0.0
2017-Dec-16 12:55N 14°35' W 061°03'0 0.0
2017-Dec-16 12:10N 14°35' W 061°03'0 0.0
2017-Dec-16 11:55N 14°35' W 061°03'0 0.0
2017-Dec-16 11:25N 14°35' W 061°03'0 0.0
2017-Dec-16 10:55N 14°35' W 061°03'0 0.0
2017-Dec-16 10:28N 14°35' W 061°03'0 0.7
2017-Dec-16 10:00N 14°36' W 061°03'3 5.1
2017-Dec-16 09:30N 14°35' W 061°06'2 4.8
2017-Dec-16 09:00N 14°33' W 061°07'4 8.0
2017-Dec-16 08:30N 14°29' W 061°08'612.0
2017-Dec-16 08:00N 14°24' W 061°05'713.4
2017-Dec-16 07:30N 14°19' W 061°00'713.7
2017-Dec-16 07:00N 14°15' W 060°55'913.6
2017-Dec-16 06:22N 14°09' W 060°48'513.1
2017-Dec-16 06:00N 14°06' W 060°45'134 4.5
2017-Dec-15 00:00N 14°36' W 058°30'10417.4 1016.910.8 27.521.630.0
2017-Dec-14 18:00N 15°54' W 057°18'22018.3 360 / 241015.910.8 28.225.4
2017-Dec-14 06:00N 18°36' W 054°42'22618.9 020 / 271017.8 5.4 26.221.4
2017-Dec-13 18:00N 21°18' W 051°54'22919.0 010 / 191017.710.8 26.520.6
2017-Dec-13 06:00N 24°06' W 049°06'22618.9 030 / 341019.4 5.4 24.519.9
2017-Dec-12 18:00N 26°54' W 046°18'22718.9 010 / 321020.1 5.4 24.321.3
2017-Dec-12 06:00N 29°36' W 043°18'11919.8 020 / 361024.1 5.4 22.518.6
2017-Dec-12 00:00N 31°06' W 041°48'11719.5 010 / 321031.2 5.4 23.019.122.0
2017-Dec-11 18:00N 32°18' W 040°00'23519.5 010 / 261028.1 5.4 22.017.3
2017-Dec-11 06:00N 34°42' W 036°18'23419.5 040 / 221030.8 5.4 19.917.6
2017-Dec-10 18:00N 37°06' W 032°30'11219.2 090 / 191028.1 5.4 19.516.7
2017-Dec-10 12:10N 38°19' W 030°42'319.1
2017-Dec-10 12:00N 38°20' W 030°39'1019.2
2017-Dec-10 11:31N 38°26' W 030°29'1019.4
2017-Dec-10 11:00N 38°32' W 030°19'919.0
2017-Dec-10 10:30N 38°38' W 030°10'918.8
2017-Dec-10 10:00N 38°44' W 030°01'1019.0
2017-Dec-10 09:30N 38°50' W 029°51'918.9
2017-Dec-10 09:00N 38°55' W 029°41'918.8
2017-Dec-10 08:30N 39°00' W 029°31'918.9
2017-Dec-10 08:01N 39°06' W 029°21'918.8
2017-Dec-10 07:30N 39°11' W 029°11'918.9
2017-Dec-10 07:00N 39°16' W 029°01'918.9
2017-Dec-10 06:30N 39°21' W 028°50'918.9
2017-Dec-10 06:01N 39°27' W 028°40'1019.0
2017-Dec-10 05:30N 39°32' W 028°30'1019.1
2017-Dec-10 05:00N 39°38' W 028°20'1019.1
2017-Dec-10 04:31N 39°43' W 028°10'1019.4
2017-Dec-10 04:00N 39°48' W 027°59'3719.2
2017-Dec-10 02:04N 40°09' W 027°19'419.0
2017-Dec-10 01:52N 40°11' W 027°15'1019.1
2017-Dec-10 01:21N 40°17' W 027°04'918.7
2017-Dec-10 00:53N 40°22' W 026°55'2123.0
2017-Dec-10 00:00N 40°30' W 026°30'32918.3 070 / 361026.0 5.4 20.017.118.0
2017-Dec-09 06:00N 43°36' W 020°24'55317.8 030 / 301024.610.8 18.016.317.0
2017-Dec-07 23:00N 48°18' W 009°00'   260 / 31026.4 5.4 12.010.1
Track history (hours):
 
Tides and Currents Weather Stations Pressure Air Temp Water Temp Dewpoint Dewpoint Depression Visibility Wind Speed Wind Dir Waves Ship Positions

Benguela Stream

Last reported at 2017-Dec-17 20:18 UTC. Time now 2017-Dec-18 01:35 UTC.
Position N 15°08' W 061°35'.

Length 150 m; beam 13 m.

Type: Cargo ship. MMSI: 244455000.

Date/timePositionNaut miles runAvg speedWind from/ knotsBaromVisibWave heightAir tempDewpointWater temp
2017-Dec-17 20:18N 15°08' W 061°35'515.6
2017-Dec-17 19:59N 15°13' W 061°35'815.3
2017-Dec-17 19:29N 15°20' W 061°34'815.7
2017-Dec-17 18:57N 15°29' W 061°34'915.8
2017-Dec-17 18:22N 15°38' W 061°33'915.2
2017-Dec-17 17:48N 15°46' W 061°32'915.7
2017-Dec-17 17:13N 15°56' W 061°31'415.6
2017-Dec-17 16:59N 15°59' W 061°30'715.3
2017-Dec-17 16:30N 16°07' W 061°31'5 9.5
2017-Dec-17 16:00N 16°11' W 061°33'3 5.4
2017-Dec-17 15:27N 16°14' W 061°33'0 0.0
2017-Dec-17 14:57N 16°14' W 061°33'0 0.0
2017-Dec-17 14:21N 16°14' W 061°33'0 0.0
2017-Dec-17 14:00N 16°14' W 061°33'0 0.0
2017-Dec-17 13:30N 16°14' W 061°33'0 0.0
2017-Dec-17 13:00N 16°14' W 061°33'0 0.0
2017-Dec-17 12:30N 16°14' W 061°33'0 0.0
2017-Dec-17 12:00N 16°14' W 061°33'0 0.0
2017-Dec-17 11:30N 16°14' W 061°33'0 0.0
2017-Dec-17 11:00N 16°14' W 061°33'0 0.0
2017-Dec-17 10:30N 16°14' W 061°33'1 2.6
2017-Dec-17 10:00N 16°13' W 061°32'4 8.3
2017-Dec-17 09:30N 16°09' W 061°31'1 2.1
2017-Dec-17 09:01N 16°08' W 061°30'1 2.2
2017-Dec-17 08:30N 16°07' W 061°30'510.6
2017-Dec-17 08:00N 16°01' W 061°31'711.9
2017-Dec-17 07:24N 15°54' W 061°31'611.6
2017-Dec-17 06:53N 15°48' W 061°32'411.8
2017-Dec-17 06:30N 15°44' W 061°33'712.1
2017-Dec-17 05:56N 15°37' W 061°33'56 7.9
2017-Dec-16 22:50N 14°42' W 061°21'511.0
2017-Dec-16 22:24N 14°39' W 061°17'512.2
2017-Dec-16 22:00N 14°37' W 061°13'812.1
2017-Dec-16 21:21N 14°35' W 061°05'2 4.4
2017-Dec-16 21:01N 14°35' W 061°03'0 0.0
2017-Dec-16 20:28N 14°35' W 061°03'0 0.0
2017-Dec-16 19:58N 14°35' W 061°03'0 0.0
2017-Dec-16 19:28N 14°35' W 061°03'0 0.0
2017-Dec-16 18:58N 14°35' W 061°03'0 0.0
2017-Dec-16 18:28N 14°35' W 061°03'0 0.0
2017-Dec-16 17:58N 14°35' W 061°03'0 0.0
2017-Dec-16 17:28N 14°35' W 061°03'0 0.0
2017-Dec-16 16:58N 14°35' W 061°03'0 0.0
2017-Dec-16 16:28N 14°35' W 061°03'0 0.0
2017-Dec-16 15:58N 14°35' W 061°03'0 0.0
2017-Dec-16 15:25N 14°35' W 061°03'0 0.0
2017-Dec-16 14:58N 14°35' W 061°03'0 0.0
2017-Dec-16 14:28N 14°35' W 061°03'0 0.0
2017-Dec-16 13:55N 14°35' W 061°03'0 0.0
2017-Dec-16 13:28N 14°35' W 061°03'0 0.0
2017-Dec-16 12:55N 14°35' W 061°03'0 0.0
2017-Dec-16 12:10N 14°35' W 061°03'0 0.0
2017-Dec-16 11:55N 14°35' W 061°03'0 0.0
2017-Dec-16 11:25N 14°35' W 061°03'0 0.0
2017-Dec-16 10:55N 14°35' W 061°03'0 0.0
2017-Dec-16 10:28N 14°35' W 061°03'0 0.7
2017-Dec-16 10:00N 14°36' W 061°03'3 5.1
2017-Dec-16 09:30N 14°35' W 061°06'2 4.8
2017-Dec-16 09:00N 14°33' W 061°07'4 8.0
2017-Dec-16 08:30N 14°29' W 061°08'612.0
2017-Dec-16 08:00N 14°24' W 061°05'713.4
2017-Dec-16 07:30N 14°19' W 061°00'713.7
2017-Dec-16 07:00N 14°15' W 060°55'913.6
2017-Dec-16 06:22N 14°09' W 060°48'513.1
2017-Dec-16 06:00N 14°06' W 060°45'134 4.5
2017-Dec-15 00:00N 14°36' W 058°30'10417.4 1016.910.8 27.521.630.0
2017-Dec-14 18:00N 15°54' W 057°18'22018.3 360 / 241015.910.8 28.225.4
2017-Dec-14 06:00N 18°36' W 054°42'22618.9 020 / 271017.8 5.4 26.221.4
2017-Dec-13 18:00N 21°18' W 051°54'22919.0 010 / 191017.710.8 26.520.6
2017-Dec-13 06:00N 24°06' W 049°06'22618.9 030 / 341019.4 5.4 24.519.9
2017-Dec-12 18:00N 26°54' W 046°18'22718.9 010 / 321020.1 5.4 24.321.3
2017-Dec-12 06:00N 29°36' W 043°18'11919.8 020 / 361024.1 5.4 22.518.6
2017-Dec-12 00:00N 31°06' W 041°48'11719.5 010 / 321031.2 5.4 23.019.122.0
2017-Dec-11 18:00N 32°18' W 040°00'23519.5 010 / 261028.1 5.4 22.017.3
2017-Dec-11 06:00N 34°42' W 036°18'23419.5 040 / 221030.8 5.4 19.917.6
2017-Dec-10 18:00N 37°06' W 032°30'11219.2 090 / 191028.1 5.4 19.516.7
2017-Dec-10 12:10N 38°19' W 030°42'319.1
2017-Dec-10 12:00N 38°20' W 030°39'1019.2
2017-Dec-10 11:31N 38°26' W 030°29'1019.4
2017-Dec-10 11:00N 38°32' W 030°19'919.0
2017-Dec-10 10:30N 38°38' W 030°10'918.8
2017-Dec-10 10:00N 38°44' W 030°01'1019.0
2017-Dec-10 09:30N 38°50' W 029°51'918.9
2017-Dec-10 09:00N 38°55' W 029°41'918.8
2017-Dec-10 08:30N 39°00' W 029°31'918.9
2017-Dec-10 08:01N 39°06' W 029°21'918.8
2017-Dec-10 07:30N 39°11' W 029°11'918.9
2017-Dec-10 07:00N 39°16' W 029°01'918.9
2017-Dec-10 06:30N 39°21' W 028°50'918.9
2017-Dec-10 06:01N 39°27' W 028°40'1019.0
2017-Dec-10 05:30N 39°32' W 028°30'1019.1
2017-Dec-10 05:00N 39°38' W 028°20'1019.1
2017-Dec-10 04:31N 39°43' W 028°10'1019.4
2017-Dec-10 04:00N 39°48' W 027°59'3719.2
2017-Dec-10 02:04N 40°09' W 027°19'419.0
2017-Dec-10 01:52N 40°11' W 027°15'1019.1
2017-Dec-10 01:21N 40°17' W 027°04'918.7
2017-Dec-10 00:53N 40°22' W 026°55'2123.0
2017-Dec-10 00:00N 40°30' W 026°30'32918.3 070 / 361026.0 5.4 20.017.118.0
2017-Dec-09 06:00N 43°36' W 020°24'55317.8 030 / 301024.610.8 18.016.317.0
2017-Dec-07 23:00N 48°18' W 009°00'   260 / 31026.4 5.4 12.010.1

Dump ship's entire track history